Аликово

Карта отелей и гостиниц, располагающихся рядом с аэропортом Аликово :

Аликово Чувашия 55° 45' 6.9012" N, 46° 44' 51.6012" E
Аликово Чувашия 55° 45' 6.9012" N, 46° 44' 51.6012" E
Код аэродрома ИКАО
ZA0C
Код аэродрома RU
ЗА0Ц
Координаты
N55.75192° E046.74767°
Превышение над уровнем моря
199
Основная полоса
01/19
Курс магнитный
012/192
Длина основной ВПП
400
Ширина основной ВПП
19
Покрытие основной ВПП
Твёрдое (асфальт)
Освещение ВПП
Нет
Тип: 
Аэродром
Класс аэродрома: 
Принадлежность: 
ГА
Статус: 
Недействующий
Сайт: 
E-mail аэродрома: 
Страна: 
Россия
Регион: 
Чувашия
Город: 
Дополнительная информация: 
Площадка АХР.

Найти трансфер

С помощью этой формы Вы можете найти трансфер из аэропорта Аликово в город, аэропорт или вокзал:

Карта места

Javascript is required to view this map.

Погода в аэропортах:

Авиационная погода в Краснодаре

Регион: 
Погода METAR: 
URKK 171330Z 14002MPS 9999 -SHRA SCT065CB 10/08 Q1021 R23L/19//65 TEMPO 3000 -TSRA SCT010 BKN020CB RMK QFE763
Время наблюдения
2021-04-17T13:30:00Z
Температура C
10.0
Точка росы
8.0
Направление ветра
140
Скорость ветра (узлы)
4
Метео видимость
6.21
Явления погоды
-SHRA
Условия полета
VFR
Аэропорт подробнее: 

Авиационная погода в Гостомеле

Регион: 
Погода METAR: 
UKKM 171330Z AUTO 14002MPS 9999 -DZ ///005/// 07/07 Q1018
Время наблюдения
2021-04-17T13:30:00Z
Температура C
7.0
Точка росы
7.0
Направление ветра
140
Скорость ветра (узлы)
4
Метео видимость
6.21
Явления погоды
-DZ
Условия полета
Аэропорт подробнее: 

Авиационная погода в Ботсфьорде

Регион: 
Погода METAR: 
ENBS 161920Z 27037G47KT 9999 VCSH SCT020 SCT041 03/01 Q1023
Время наблюдения
2021-04-16T19:20:00Z
Температура C
3.0
Точка росы
1.0
Направление ветра
270
Скорость ветра (узлы)
37
Метео видимость
6.21
Явления погоды
VCSH
Условия полета
VFR

Авиационная погода в Мирном

Регион: 
Погода METAR: 
UERR 171400Z 29007G12MPS 9999 DRSN NSC M12/M21 Q0999 R25/890340 NOSIG RMK QFE719/0958
Время наблюдения
2021-04-17T14:00:00Z
Температура C
-12.0
Точка росы
-21.0
Направление ветра
290
Скорость ветра (узлы)
14
Метео видимость
6.21
Явления погоды
DRSN
Условия полета
VFR
Аэропорт подробнее: